createdAt,value
2023-03-23T15:59:43.168Z,12.20
2023-03-23T16:02:16.383Z,12.10
2023-03-23T16:04:45.710Z,12.10
2023-03-23T16:07:14.199Z,12.10
2023-03-23T16:09:42.522Z,12.10
2023-03-23T16:12:15.684Z,12.00
2023-03-23T16:14:42.513Z,11.80
2023-03-23T16:17:19.445Z,11.70
2023-03-23T16:19:48.041Z,11.70
2023-03-23T16:22:16.535Z,11.80
2023-03-23T16:24:44.029Z,11.80
2023-03-23T16:27:11.337Z,11.80
2023-03-23T16:29:58.207Z,11.80
2023-03-23T16:32:25.452Z,11.80
2023-03-23T16:34:52.333Z,11.80
2023-03-23T16:37:19.285Z,11.80
2023-03-23T16:39:46.156Z,11.80
2023-03-23T16:42:12.951Z,11.80
2023-03-23T16:44:39.653Z,11.80
2023-03-23T16:47:06.409Z,11.80
2023-03-23T16:49:33.132Z,11.80
2023-03-23T16:51:59.942Z,11.80
2023-03-23T16:54:26.725Z,11.70
2023-03-23T16:56:53.551Z,11.70
2023-03-23T16:59:20.443Z,11.70
2023-03-23T17:01:47.352Z,11.70
2023-03-23T17:04:15.706Z,11.70
2023-03-23T17:06:43.992Z,11.70
2023-03-23T17:09:10.859Z,11.70
2023-03-23T17:11:38.081Z,11.70
2023-03-23T17:14:04.924Z,11.70
2023-03-23T17:16:32.817Z,11.70
2023-03-23T17:18:59.920Z,11.60
2023-03-23T17:21:27.384Z,11.70
2023-03-23T17:23:54.412Z,11.60
2023-03-23T17:26:21.433Z,11.60
2023-03-23T17:28:48.422Z,11.60
2023-03-23T17:31:15.383Z,11.50
2023-03-23T17:33:42.610Z,11.50
2023-03-23T17:36:09.659Z,11.40
2023-03-23T17:38:36.407Z,11.40
2023-03-23T17:41:06.354Z,11.30
2023-03-23T17:43:33.729Z,11.30
2023-03-23T17:46:00.608Z,11.20
2023-03-23T17:48:27.500Z,11.20
2023-03-23T17:50:57.602Z,11.10
2023-03-23T17:53:25.546Z,11.10
2023-03-23T17:55:54.670Z,11.10
2023-03-23T17:58:21.912Z,11.10
2023-03-23T18:00:48.718Z,11.00
2023-03-23T18:03:15.635Z,11.00
2023-03-23T18:05:42.586Z,11.00
2023-03-23T18:08:09.443Z,11.00
2023-03-23T18:10:37.202Z,10.90
2023-03-23T18:13:04.464Z,11.00
2023-03-23T18:15:33.377Z,10.90
2023-03-23T18:18:01.294Z,10.90
2023-03-23T18:20:28.025Z,10.90
2023-03-23T18:22:54.826Z,10.80
2023-03-23T18:25:21.729Z,10.80
2023-03-23T18:27:49.919Z,10.80
2023-03-23T18:30:16.775Z,10.80
2023-03-23T18:32:43.660Z,10.80
2023-03-23T18:35:10.988Z,10.70
2023-03-23T18:37:41.413Z,10.80
2023-03-23T18:40:11.839Z,10.70
2023-03-23T18:42:39.842Z,10.70
2023-03-23T18:45:06.810Z,10.70
2023-03-23T18:47:33.946Z,10.70
2023-03-23T18:50:01.505Z,10.80
2023-03-23T18:52:31.203Z,10.70
2023-03-23T18:54:58.222Z,10.70
2023-03-23T18:57:25.624Z,10.70
2023-03-23T18:59:53.463Z,10.70
2023-03-23T19:02:20.853Z,10.70
2023-03-23T19:04:48.429Z,10.60
2023-03-23T19:07:16.453Z,10.70
2023-03-23T19:09:45.267Z,10.60
2023-03-23T19:12:12.824Z,10.60
2023-03-23T19:14:40.294Z,10.60
2023-03-23T19:17:07.517Z,10.60
2023-03-23T19:19:36.372Z,10.60
2023-03-23T19:22:03.585Z,10.60
2023-03-23T19:24:30.471Z,10.60
2023-03-23T19:26:57.597Z,10.50
2023-03-23T19:29:27.314Z,10.60
2023-03-23T19:31:55.332Z,10.60
2023-03-23T19:34:22.944Z,10.50
2023-03-23T19:36:55.211Z,10.60
2023-03-23T19:39:26.682Z,10.60
2023-03-23T19:41:53.755Z,10.60
2023-03-23T19:44:20.750Z,10.60
2023-03-23T19:46:48.306Z,10.60
2023-03-23T19:49:15.256Z,10.60
2023-03-23T19:51:42.052Z,10.60
2023-03-23T19:54:08.957Z,10.60
2023-03-23T19:56:36.144Z,10.60
2023-03-23T19:59:03.145Z,10.60
2023-03-23T20:01:30.239Z,10.60
2023-03-23T20:04:01.829Z,10.60
2023-03-23T20:06:29.834Z,10.60
2023-03-23T20:08:59.939Z,10.60
2023-03-23T20:11:27.820Z,10.60
2023-03-23T20:13:55.423Z,10.50
2023-03-23T20:16:22.384Z,10.50
2023-03-23T20:18:50.372Z,10.50
2023-03-23T20:21:20.298Z,10.50
2023-03-23T20:23:47.440Z,10.50
2023-03-23T20:26:19.574Z,10.50
2023-03-23T20:28:47.638Z,10.50
2023-03-23T20:31:23.393Z,10.50
2023-03-23T20:33:59.690Z,10.50
2023-03-23T20:36:40.104Z,10.50
2023-03-23T20:39:09.367Z,10.50
2023-03-23T20:41:38.617Z,10.50
2023-03-23T20:44:10.142Z,10.50
2023-03-23T20:46:39.736Z,10.50
2023-03-23T20:49:06.544Z,10.50
2023-03-23T20:51:34.129Z,10.60
2023-03-23T20:54:01.901Z,10.60
2023-03-23T20:56:28.737Z,10.50
2023-03-23T20:58:55.900Z,10.50
2023-03-23T21:01:22.906Z,10.50
2023-03-23T21:03:52.334Z,10.50
2023-03-23T21:06:19.373Z,10.50
2023-03-23T21:08:46.684Z,10.50
2023-03-23T21:11:18.496Z,10.50
2023-03-23T21:13:45.701Z,10.50
2023-03-23T21:16:12.644Z,10.50
2023-03-23T21:18:39.458Z,10.50
2023-03-23T21:21:09.225Z,10.50
2023-03-23T21:23:38.316Z,10.60
2023-03-23T21:26:28.844Z,10.60
2023-03-23T21:29:04.526Z,10.50
2023-03-23T21:31:47.249Z,10.50
2023-03-23T21:34:15.259Z,10.50
2023-03-23T21:36:51.663Z,10.60
2023-03-23T21:39:42.440Z,10.60
2023-03-23T21:42:15.449Z,10.60
2023-03-23T21:44:42.882Z,10.60
2023-03-23T21:47:10.834Z,10.60
2023-03-23T21:49:40.369Z,10.60
2023-03-23T21:52:10.497Z,10.60
2023-03-23T21:54:54.958Z,10.60
2023-03-23T21:57:21.977Z,10.60
2023-03-23T21:59:48.717Z,10.60
2023-03-23T22:02:15.823Z,10.70
2023-03-23T22:04:48.462Z,10.60
2023-03-23T22:07:18.116Z,10.60
2023-03-23T22:09:49.651Z,10.70
2023-03-23T22:12:21.128Z,10.70
2023-03-23T22:14:48.068Z,10.70
2023-03-23T22:17:17.618Z,10.70
2023-03-23T22:19:59.521Z,10.70
2023-03-23T22:22:29.054Z,10.80
2023-03-23T22:24:55.866Z,10.80
2023-03-23T22:27:28.210Z,10.80
2023-03-23T22:29:57.803Z,10.80
2023-03-23T22:32:32.046Z,10.80
2023-03-23T22:35:04.956Z,10.80
2023-03-23T22:37:35.009Z,10.80
2023-03-23T22:40:07.168Z,10.90
2023-03-23T22:42:37.302Z,10.90
2023-03-23T22:45:06.281Z,10.90
2023-03-23T22:47:34.324Z,10.90
2023-03-23T22:50:01.200Z,10.90
2023-03-23T22:52:28.193Z,10.90
2023-03-23T22:54:55.172Z,10.90
2023-03-23T22:57:23.077Z,10.90
2023-03-23T22:59:50.224Z,10.90
2023-03-23T23:02:19.363Z,10.90
2023-03-23T23:04:46.725Z,10.90
2023-03-23T23:07:14.416Z,11.00
2023-03-23T23:09:42.128Z,11.00
2023-03-23T23:12:09.833Z,11.00
2023-03-23T23:14:37.547Z,11.00
2023-03-23T23:17:04.827Z,11.00
2023-03-23T23:19:32.737Z,11.00
2023-03-23T23:22:09.231Z,11.10
2023-03-23T23:24:43.532Z,11.10
2023-03-23T23:27:11.009Z,11.10
2023-03-23T23:29:38.749Z,11.10
2023-03-23T23:32:05.555Z,11.10
2023-03-23T23:34:32.500Z,11.10
2023-03-23T23:36:59.571Z,11.10
2023-03-23T23:39:27.816Z,11.10
2023-03-23T23:41:55.778Z,11.10
2023-03-23T23:44:22.810Z,11.20
2023-03-23T23:46:49.828Z,11.20
2023-03-23T23:49:16.729Z,11.20
2023-03-23T23:51:44.845Z,11.20
2023-03-23T23:54:14.604Z,11.20
2023-03-23T23:56:41.492Z,11.20
2023-03-23T23:59:08.332Z,11.20
